createdAt,value
2023-09-27T00:00:20.884Z,12.79
2023-09-27T00:02:47.166Z,12.79
2023-09-27T00:05:13.687Z,12.80
2023-09-27T00:07:40.281Z,12.81
2023-09-27T00:10:06.510Z,12.85
2023-09-27T00:12:32.887Z,12.86
2023-09-27T00:14:59.092Z,12.83
2023-09-27T00:17:25.319Z,12.87
2023-09-27T00:19:51.537Z,12.89
2023-09-27T00:22:17.742Z,12.91
2023-09-27T00:24:43.973Z,12.91
2023-09-27T00:27:10.236Z,12.89
2023-09-27T00:29:36.435Z,12.90
2023-09-27T00:32:02.686Z,12.89
2023-09-27T00:34:28.988Z,12.89
2023-09-27T00:36:55.201Z,12.89
2023-09-27T00:39:21.378Z,12.88
2023-09-27T00:41:47.625Z,12.86
2023-09-27T00:44:13.826Z,12.81
2023-09-27T00:46:40.047Z,12.76
2023-09-27T00:49:06.272Z,12.71
2023-09-27T00:51:32.458Z,12.68
2023-09-27T00:53:58.703Z,12.65
2023-09-27T00:56:25.001Z,12.61
2023-09-27T00:58:51.268Z,12.56
2023-09-27T01:01:17.623Z,12.52
2023-09-27T01:03:43.950Z,12.47
2023-09-27T01:06:10.222Z,12.43
2023-09-27T01:08:36.465Z,12.40
2023-09-27T01:11:02.727Z,12.36
2023-09-27T01:13:28.991Z,12.34
2023-09-27T01:15:55.969Z,12.35
2023-09-27T01:18:22.215Z,12.35
2023-09-27T01:20:48.476Z,12.36
2023-09-27T01:23:15.005Z,12.35
2023-09-27T01:25:41.259Z,12.31
2023-09-27T01:28:07.554Z,12.28
2023-09-27T01:30:34.168Z,12.24
2023-09-27T01:33:01.572Z,12.25
2023-09-27T01:35:27.926Z,12.22
2023-09-27T01:37:54.168Z,12.20
2023-09-27T01:40:20.406Z,12.17
2023-09-27T01:42:46.825Z,12.09
2023-09-27T01:45:13.074Z,11.99
2023-09-27T01:47:39.390Z,11.96
2023-09-27T01:50:05.665Z,11.88
2023-09-27T01:52:31.885Z,11.87
2023-09-27T01:54:58.122Z,11.83
2023-09-27T01:57:24.563Z,11.80
2023-09-27T01:59:50.832Z,11.66
2023-09-27T02:02:19.127Z,11.74
2023-09-27T02:04:45.465Z,11.68
2023-09-27T02:07:11.691Z,11.60
2023-09-27T02:09:37.873Z,11.58
2023-09-27T02:12:04.116Z,11.55
2023-09-27T02:14:30.348Z,11.46
2023-09-27T02:16:56.684Z,11.38
2023-09-27T02:19:22.922Z,11.36
2023-09-27T02:21:49.109Z,11.35
2023-09-27T02:24:15.313Z,11.30
2023-09-27T02:26:41.562Z,11.33
2023-09-27T02:29:07.798Z,11.31
2023-09-27T02:31:34.069Z,11.31
2023-09-27T02:34:00.350Z,11.29
2023-09-27T02:36:26.539Z,11.27
2023-09-27T02:38:54.064Z,11.24
2023-09-27T02:41:20.458Z,11.23
2023-09-27T02:43:46.689Z,11.21
2023-09-27T02:46:12.938Z,11.22
2023-09-27T02:48:40.262Z,11.17
2023-09-27T02:51:06.696Z,11.29
2023-09-27T02:53:32.917Z,11.38
2023-09-27T02:55:59.185Z,11.35
2023-09-27T02:58:25.474Z,11.37
2023-09-27T03:00:51.838Z,11.41
2023-09-27T03:03:18.365Z,11.44
2023-09-27T03:05:44.699Z,11.49
2023-09-27T03:08:10.957Z,11.56
2023-09-27T03:10:39.030Z,11.58
2023-09-27T03:13:05.997Z,11.66
2023-09-27T03:15:32.204Z,11.92
2023-09-27T03:17:58.487Z,11.96
2023-09-27T03:20:24.741Z,11.97
2023-09-27T03:22:50.972Z,11.92
2023-09-27T03:25:17.149Z,11.85
2023-09-27T03:27:43.378Z,11.98
2023-09-27T03:30:09.563Z,12.04
2023-09-27T03:32:35.810Z,12.03
2023-09-27T03:35:02.120Z,12.06
2023-09-27T03:37:28.428Z,12.06
2023-09-27T03:40:01.440Z,11.95
2023-09-27T03:42:27.621Z,11.92
2023-09-27T03:44:53.884Z,11.86
2023-09-27T03:47:20.203Z,11.77
2023-09-27T03:49:46.462Z,11.72
2023-09-27T03:52:12.676Z,11.67
2023-09-27T03:54:38.941Z,11.64
2023-09-27T03:57:08.167Z,11.59
2023-09-27T03:59:34.447Z,11.50
2023-09-27T04:02:02.353Z,11.51
2023-09-27T04:04:28.645Z,11.52
2023-09-27T04:06:57.337Z,11.53
2023-09-27T04:09:23.569Z,11.52
2023-09-27T04:11:49.813Z,11.52
2023-09-27T04:14:16.095Z,11.51
2023-09-27T04:16:42.599Z,11.51
2023-09-27T04:19:08.803Z,11.49
2023-09-27T04:21:34.997Z,11.44
2023-09-27T04:24:01.262Z,11.41
2023-09-27T04:26:27.516Z,11.38
2023-09-27T04:28:54.155Z,11.31
2023-09-27T04:31:22.965Z,11.27
2023-09-27T04:33:49.421Z,11.18
2023-09-27T04:36:15.696Z,11.24
2023-09-27T04:38:41.905Z,11.24
2023-09-27T04:41:08.151Z,11.25
2023-09-27T04:43:34.373Z,11.31
2023-09-27T04:46:00.626Z,11.34
2023-09-27T04:48:26.952Z,11.45
2023-09-27T04:50:53.151Z,11.57
2023-09-27T04:53:19.459Z,11.64
2023-09-27T04:55:46.724Z,11.54
2023-09-27T04:58:12.945Z,11.37
2023-09-27T05:00:39.136Z,11.34
2023-09-27T05:03:05.417Z,11.30
2023-09-27T05:05:31.735Z,11.21
2023-09-27T05:07:58.109Z,11.27
2023-09-27T05:10:24.739Z,11.32
2023-09-27T05:12:51.085Z,11.38
2023-09-27T05:15:17.391Z,11.40
2023-09-27T05:17:43.943Z,11.42
2023-09-27T05:20:10.255Z,11.44
2023-09-27T05:22:45.919Z,11.43
2023-09-27T05:25:12.891Z,11.45
2023-09-27T05:27:39.297Z,11.49
2023-09-27T05:30:05.589Z,11.50
2023-09-27T05:32:31.976Z,11.52
2023-09-27T05:34:58.283Z,11.56
2023-09-27T05:37:24.552Z,11.45
2023-09-27T05:39:50.740Z,11.24
2023-09-27T05:42:16.962Z,11.10
2023-09-27T05:44:43.233Z,11.10
2023-09-27T05:47:09.481Z,11.12
2023-09-27T05:49:35.830Z,11.13
2023-09-27T05:52:02.259Z,11.18
2023-09-27T05:54:31.409Z,11.20
2023-09-27T05:56:57.660Z,11.27
2023-09-27T05:59:27.024Z,11.28
2023-09-27T06:01:55.527Z,11.33
2023-09-27T06:04:25.201Z,11.40
2023-09-27T06:06:51.445Z,11.50
2023-09-27T06:09:17.728Z,11.57
2023-09-27T06:11:44.030Z,11.56
2023-09-27T06:14:10.327Z,11.81
2023-09-27T06:16:36.578Z,11.98
2023-09-27T06:19:02.880Z,12.14
2023-09-27T06:21:29.081Z,12.32
2023-09-27T06:23:55.362Z,12.56
2023-09-27T06:26:21.673Z,12.63
2023-09-27T06:28:48.023Z,12.75
2023-09-27T06:31:14.659Z,12.89
2023-09-27T06:33:43.408Z,13.02
2023-09-27T06:36:09.756Z,13.20
2023-09-27T06:38:36.056Z,13.30
2023-09-27T06:41:02.395Z,13.45
2023-09-27T06:43:28.828Z,13.68
2023-09-27T06:45:55.178Z,13.99
2023-09-27T06:48:21.499Z,14.28
2023-09-27T06:50:47.922Z,14.75
2023-09-27T06:53:22.736Z,14.87
2023-09-27T06:55:49.857Z,15.37
2023-09-27T06:58:17.344Z,15.65
2023-09-27T07:00:43.527Z,15.64
2023-09-27T07:03:09.930Z,15.78
2023-09-27T07:05:36.354Z,15.93
2023-09-27T07:08:03.727Z,15.78
2023-09-27T07:10:29.941Z,16.30
2023-09-27T07:12:56.173Z,16.63
2023-09-27T07:15:22.398Z,17.05
2023-09-27T07:17:49.981Z,16.87
2023-09-27T07:20:17.472Z,16.93
2023-09-27T07:22:43.782Z,17.40
2023-09-27T07:25:09.997Z,17.60
2023-09-27T07:27:36.209Z,18.02
2023-09-27T07:30:02.450Z,18.47
2023-09-27T07:32:28.770Z,18.43
2023-09-27T07:34:55.045Z,18.72
2023-09-27T07:37:21.261Z,18.92
2023-09-27T07:39:47.471Z,19.20
2023-09-27T07:42:13.681Z,19.21
2023-09-27T07:44:39.946Z,19.63
2023-09-27T07:47:06.280Z,19.25
2023-09-27T07:49:32.532Z,19.29
2023-09-27T07:51:58.731Z,19.60
2023-09-27T07:54:25.008Z,19.80
2023-09-27T07:56:51.921Z,19.82
2023-09-27T07:59:18.885Z,20.02
2023-09-27T08:01:47.463Z,20.09
2023-09-27T08:04:16.343Z,20.15
2023-09-27T08:06:42.663Z,20.43
2023-09-27T08:09:14.833Z,20.38
2023-09-27T08:11:44.265Z,20.34
2023-09-27T08:14:10.718Z,20.18
2023-09-27T08:16:37.083Z,20.20
2023-09-27T08:19:03.331Z,20.44
2023-09-27T08:21:29.558Z,21.05
2023-09-27T08:23:55.795Z,21.37
2023-09-27T08:26:22.491Z,21.51
2023-09-27T08:28:48.895Z,21.83
2023-09-27T08:31:15.217Z,22.32
2023-09-27T08:33:41.496Z,22.64
2023-09-27T08:36:07.720Z,23.20
2023-09-27T08:38:34.021Z,23.45
2023-09-27T08:41:00.292Z,24.44
2023-09-27T08:43:26.476Z,24.63
2023-09-27T08:45:52.869Z,24.22
2023-09-27T08:48:19.260Z,24.86
2023-09-27T08:50:45.568Z,24.56
2023-09-27T08:53:11.942Z,24.44
2023-09-27T08:55:38.652Z,24.81
2023-09-27T08:58:04.884Z,24.61
2023-09-27T09:00:31.140Z,24.46
2023-09-27T09:02:57.467Z,23.87
2023-09-27T09:05:23.811Z,23.53
2023-09-27T09:07:50.031Z,23.23
2023-09-27T09:10:16.348Z,22.66
2023-09-27T09:12:42.567Z,22.14
2023-09-27T09:15:08.812Z,21.92
2023-09-27T09:17:35.300Z,22.05
2023-09-27T09:20:01.623Z,21.75
2023-09-27T09:22:27.859Z,22.06
2023-09-27T09:24:54.079Z,22.18
2023-09-27T09:27:20.302Z,22.30
2023-09-27T09:29:46.594Z,22.61
2023-09-27T09:32:12.842Z,22.52
2023-09-27T09:34:39.644Z,22.60
2023-09-27T09:37:05.895Z,22.54
2023-09-27T09:39:32.122Z,22.71
2023-09-27T09:41:58.330Z,22.86
2023-09-27T09:44:24.618Z,22.89
2023-09-27T09:46:50.933Z,22.82
2023-09-27T09:49:17.224Z,22.94
2023-09-27T09:51:43.453Z,22.90
2023-09-27T09:54:09.828Z,22.78
2023-09-27T09:56:43.140Z,22.98
2023-09-27T09:59:17.156Z,23.01
2023-09-27T10:01:43.441Z,23.06
2023-09-27T10:04:10.721Z,23.25
2023-09-27T10:06:47.116Z,23.33
2023-09-27T10:09:14.799Z,23.58
2023-09-27T10:11:41.125Z,23.05
2023-09-27T10:14:07.429Z,23.55
2023-09-27T10:16:33.681Z,23.60
2023-09-27T10:18:59.912Z,23.59
2023-09-27T10:21:26.159Z,23.93
2023-09-27T10:23:52.366Z,24.08
2023-09-27T10:26:18.646Z,24.28
2023-09-27T10:28:44.947Z,24.39
2023-09-27T10:31:11.287Z,24.48
2023-09-27T10:33:37.474Z,24.36
2023-09-27T10:36:03.719Z,24.55
2023-09-27T10:38:29.953Z,24.72
2023-09-27T10:40:56.177Z,24.59
2023-09-27T10:43:22.433Z,24.86
2023-09-27T10:45:48.720Z,24.71
2023-09-27T10:48:14.944Z,24.62
2023-09-27T10:50:41.295Z,25.03
2023-09-27T10:53:07.539Z,25.02
2023-09-27T10:55:33.865Z,25.27
2023-09-27T10:58:00.129Z,24.54
2023-09-27T11:00:26.378Z,24.75
2023-09-27T11:02:52.802Z,24.64
2023-09-27T11:05:19.064Z,24.55
2023-09-27T11:07:45.341Z,24.45
2023-09-27T11:10:11.651Z,24.43
2023-09-27T11:12:37.863Z,24.56
2023-09-27T11:15:04.098Z,24.69
2023-09-27T11:17:30.386Z,24.92
2023-09-27T11:19:56.845Z,24.94
2023-09-27T11:22:23.103Z,24.93
2023-09-27T11:24:50.851Z,25.25
2023-09-27T11:27:17.108Z,25.10
2023-09-27T11:29:43.412Z,25.64
2023-09-27T11:32:09.756Z,25.69
2023-09-27T11:34:36.047Z,25.83
2023-09-27T11:37:02.262Z,26.00
2023-09-27T11:39:28.527Z,26.30
2023-09-27T11:41:54.806Z,25.92
2023-09-27T11:44:21.062Z,25.68
2023-09-27T11:46:48.098Z,25.58
2023-09-27T11:49:14.475Z,25.01
2023-09-27T11:51:40.743Z,24.81
2023-09-27T11:54:06.990Z,24.56
2023-09-27T11:56:33.278Z,24.58
2023-09-27T11:58:59.580Z,24.91
2023-09-27T12:01:25.857Z,25.32
2023-09-27T12:03:53.637Z,25.47
2023-09-27T12:06:20.230Z,25.88
2023-09-27T12:08:46.542Z,26.11
2023-09-27T12:11:12.834Z,26.13
2023-09-27T12:13:39.056Z,26.12
2023-09-27T12:16:05.293Z,26.12
2023-09-27T12:18:31.759Z,26.53
2023-09-27T12:20:58.092Z,26.84
2023-09-27T12:23:24.388Z,26.70
2023-09-27T12:25:50.634Z,26.77
2023-09-27T12:28:17.527Z,27.08
2023-09-27T12:30:43.785Z,27.06
2023-09-27T12:33:10.117Z,26.78
2023-09-27T12:35:36.342Z,26.37
2023-09-27T12:38:02.592Z,26.55
2023-09-27T12:40:28.873Z,26.74
2023-09-27T12:42:55.107Z,26.74
2023-09-27T12:45:21.373Z,26.88
2023-09-27T12:47:47.733Z,26.81
2023-09-27T12:50:14.041Z,26.95
2023-09-27T12:52:40.370Z,27.14
2023-09-27T12:55:06.667Z,27.01
2023-09-27T12:57:33.019Z,27.11
2023-09-27T12:59:59.300Z,27.06
2023-09-27T13:02:25.664Z,27.15
2023-09-27T13:04:51.950Z,27.18
2023-09-27T13:07:18.580Z,27.19
2023-09-27T13:09:44.881Z,27.25
2023-09-27T13:12:11.138Z,27.40
2023-09-27T13:14:37.383Z,27.33
2023-09-27T13:17:03.577Z,27.44
2023-09-27T13:19:30.772Z,27.58
2023-09-27T13:21:57.015Z,27.61
2023-09-27T13:24:23.490Z,27.72
2023-09-27T13:26:49.729Z,27.60
2023-09-27T13:29:18.816Z,27.52
2023-09-27T13:31:46.356Z,27.73
2023-09-27T13:34:12.741Z,27.65
2023-09-27T13:36:39.070Z,27.63
2023-09-27T13:39:05.297Z,27.72
2023-09-27T13:41:31.562Z,27.52
2023-09-27T13:43:57.873Z,27.89
2023-09-27T13:46:24.127Z,27.96
2023-09-27T13:48:50.449Z,28.15
2023-09-27T13:51:17.441Z,28.21
2023-09-27T13:53:44.968Z,28.47
2023-09-27T13:56:11.295Z,28.28
2023-09-27T13:58:37.540Z,28.27
2023-09-27T14:01:03.797Z,28.36
2023-09-27T14:03:30.108Z,28.40
2023-09-27T14:05:56.416Z,28.57
2023-09-27T14:08:22.862Z,28.59
2023-09-27T14:10:49.084Z,28.76
2023-09-27T14:13:15.306Z,28.86
2023-09-27T14:15:41.588Z,28.90
2023-09-27T14:18:07.892Z,29.01
2023-09-27T14:20:34.289Z,28.94
2023-09-27T14:23:00.807Z,29.05
2023-09-27T14:25:27.031Z,29.21
2023-09-27T14:27:53.228Z,29.40
2023-09-27T14:30:19.542Z,29.25
2023-09-27T14:32:46.119Z,29.39
2023-09-27T14:35:12.506Z,29.47
2023-09-27T14:37:38.814Z,29.88
2023-09-27T14:40:05.056Z,29.84
2023-09-27T14:42:31.288Z,30.36
2023-09-27T14:44:57.611Z,30.86
2023-09-27T14:47:23.853Z,30.97
2023-09-27T14:49:50.169Z,31.12
2023-09-27T14:52:16.460Z,31.26
2023-09-27T14:54:42.763Z,30.97
2023-09-27T14:57:09.012Z,30.70
2023-09-27T14:59:35.265Z,30.57
2023-09-27T15:02:01.502Z,30.60
2023-09-27T15:04:27.856Z,30.58
2023-09-27T15:06:54.377Z,29.99
2023-09-27T15:09:20.751Z,30.31
2023-09-27T15:11:47.056Z,30.13
2023-09-27T15:14:13.408Z,30.41
2023-09-27T15:16:39.649Z,30.64
2023-09-27T15:19:06.120Z,31.13
2023-09-27T15:21:32.420Z,31.61
2023-09-27T15:23:58.612Z,31.40
2023-09-27T15:26:24.798Z,31.17
2023-09-27T15:28:50.988Z,30.82
2023-09-27T15:31:17.235Z,30.06
2023-09-27T15:33:43.558Z,29.60
2023-09-27T15:36:09.772Z,29.13
2023-09-27T15:38:36.002Z,28.71
2023-09-27T15:41:02.301Z,28.28
2023-09-27T15:43:28.615Z,28.12
2023-09-27T15:45:54.899Z,28.10
2023-09-27T15:48:21.093Z,27.99
2023-09-27T15:50:47.294Z,27.94
2023-09-27T15:53:13.797Z,27.24
2023-09-27T15:55:40.562Z,26.77
2023-09-27T15:58:07.812Z,26.29
2023-09-27T16:00:34.176Z,25.98
2023-09-27T16:03:00.463Z,25.48
2023-09-27T16:05:26.799Z,25.27
2023-09-27T16:07:54.401Z,25.06
2023-09-27T16:10:20.676Z,24.82
2023-09-27T16:12:46.899Z,24.86
2023-09-27T16:15:13.150Z,24.62
2023-09-27T16:17:40.470Z,24.49
2023-09-27T16:20:07.211Z,24.48
2023-09-27T16:22:33.536Z,24.30
2023-09-27T16:25:00.530Z,24.17
2023-09-27T16:27:26.782Z,23.95
2023-09-27T16:29:53.631Z,23.76
2023-09-27T16:32:20.450Z,23.62
2023-09-27T16:34:46.983Z,23.50
2023-09-27T16:37:13.200Z,23.28
2023-09-27T16:39:39.414Z,23.04
2023-09-27T16:42:05.664Z,22.82
2023-09-27T16:44:31.892Z,22.58
2023-09-27T16:46:58.153Z,22.45
2023-09-27T16:49:24.516Z,22.23
2023-09-27T16:51:50.749Z,22.00
2023-09-27T16:54:16.972Z,21.81
2023-09-27T16:56:43.228Z,21.69
2023-09-27T16:59:09.485Z,21.51
2023-09-27T17:01:35.760Z,21.34
2023-09-27T17:04:02.044Z,21.16
2023-09-27T17:06:28.318Z,20.92
2023-09-27T17:08:54.576Z,20.74
2023-09-27T17:11:20.843Z,20.63
2023-09-27T17:13:47.077Z,20.54
2023-09-27T17:16:13.364Z,20.41
2023-09-27T17:18:39.923Z,20.28
2023-09-27T17:21:06.126Z,20.15
2023-09-27T17:23:32.402Z,19.99
2023-09-27T17:25:58.661Z,19.84
2023-09-27T17:28:24.915Z,19.70
2023-09-27T17:30:51.243Z,19.57
2023-09-27T17:33:17.633Z,19.37
2023-09-27T17:35:44.036Z,19.26
2023-09-27T17:38:10.270Z,19.13
2023-09-27T17:40:36.569Z,19.00
2023-09-27T17:43:02.902Z,18.87
2023-09-27T17:45:29.285Z,18.70
2023-09-27T17:47:55.553Z,18.61
2023-09-27T17:50:21.828Z,18.58
2023-09-27T17:52:48.108Z,18.47
2023-09-27T17:55:14.323Z,18.39
2023-09-27T17:57:40.643Z,18.26
2023-09-27T18:00:06.885Z,18.19
2023-09-27T18:02:33.439Z,18.09
2023-09-27T18:04:59.879Z,18.00
2023-09-27T18:07:26.236Z,17.89
2023-09-27T18:09:52.420Z,17.83
2023-09-27T18:12:18.663Z,17.74
2023-09-27T18:14:44.907Z,17.69
2023-09-27T18:17:11.260Z,17.66
2023-09-27T18:19:37.525Z,17.61
2023-09-27T18:22:03.764Z,17.54
2023-09-27T18:24:30.066Z,17.42
2023-09-27T18:26:56.275Z,17.37
2023-09-27T18:29:22.876Z,17.26
2023-09-27T18:31:51.980Z,17.19
2023-09-27T18:34:18.355Z,17.12
2023-09-27T18:36:47.837Z,17.07
2023-09-27T18:39:14.123Z,17.04
2023-09-27T18:41:40.365Z,17.02
2023-09-27T18:44:06.622Z,16.96
2023-09-27T18:46:33.793Z,16.86
2023-09-27T18:49:00.168Z,16.82
2023-09-27T18:51:26.367Z,16.72
2023-09-27T18:53:52.965Z,16.76
2023-09-27T18:56:19.653Z,16.65
2023-09-27T18:58:45.887Z,16.57
2023-09-27T19:01:12.256Z,16.49
2023-09-27T19:03:38.523Z,16.47
2023-09-27T19:06:04.784Z,16.45
2023-09-27T19:08:31.009Z,16.44
2023-09-27T19:10:57.398Z,16.40
2023-09-27T19:13:23.631Z,16.35
2023-09-27T19:15:49.957Z,16.32
2023-09-27T19:18:25.264Z,16.27
2023-09-27T19:20:51.447Z,16.21
2023-09-27T19:23:18.080Z,16.16
2023-09-27T19:25:44.420Z,16.15
2023-09-27T19:28:10.626Z,16.12
2023-09-27T19:30:36.895Z,16.07
2023-09-27T19:38:37.591Z,15.90
2023-09-27T19:41:03.831Z,15.86
2023-09-27T19:43:30.149Z,15.79
2023-09-27T19:45:56.862Z,15.74
2023-09-27T19:48:24.310Z,15.69
2023-09-27T19:50:50.544Z,15.62
2023-09-27T19:53:19.625Z,15.58
2023-09-27T19:55:45.929Z,15.57
2023-09-27T19:58:12.145Z,15.52
2023-09-27T20:00:38.400Z,15.49
2023-09-27T20:03:04.661Z,15.41
2023-09-27T20:05:30.930Z,15.38
2023-09-27T20:07:57.270Z,15.39
2023-09-27T20:10:23.545Z,15.36
2023-09-27T20:12:50.029Z,15.38
2023-09-27T20:15:16.254Z,15.41
2023-09-27T20:17:44.936Z,15.36
2023-09-27T20:20:11.221Z,15.28
2023-09-27T20:22:37.485Z,15.26
2023-09-27T20:25:03.781Z,15.22
2023-09-27T20:27:29.971Z,15.19
2023-09-27T20:29:56.220Z,15.13
2023-09-27T20:32:22.495Z,15.08
2023-09-27T20:34:54.440Z,15.06
2023-09-27T20:37:20.710Z,15.02
2023-09-27T20:39:47.066Z,14.95
2023-09-27T20:42:13.282Z,14.93
2023-09-27T20:44:39.497Z,14.88
2023-09-27T20:47:05.781Z,14.85
2023-09-27T20:49:32.369Z,14.83
2023-09-27T20:51:58.626Z,14.78
2023-09-27T20:54:25.057Z,14.71
2023-09-27T20:56:51.282Z,14.66
2023-09-27T20:59:17.524Z,14.64
2023-09-27T21:01:43.829Z,14.60
2023-09-27T21:04:10.166Z,14.58
2023-09-27T21:06:36.449Z,14.49
2023-09-27T21:09:02.761Z,14.39
2023-09-27T21:11:29.046Z,14.38
2023-09-27T21:13:55.686Z,14.36
2023-09-27T21:16:22.211Z,14.28
2023-09-27T21:18:48.419Z,14.26
2023-09-27T21:21:15.712Z,14.19
2023-09-27T21:23:41.942Z,14.13
2023-09-27T21:26:08.125Z,14.13
2023-09-27T21:28:34.378Z,14.13
2023-09-27T21:31:00.615Z,14.07
2023-09-27T21:33:26.824Z,14.00
2023-09-27T21:35:53.203Z,13.98
2023-09-27T21:38:19.445Z,13.98
2023-09-27T21:40:45.692Z,13.96
2023-09-27T21:43:11.943Z,13.93
2023-09-27T21:45:39.042Z,13.88
2023-09-27T21:48:05.309Z,13.96
2023-09-27T21:50:31.649Z,13.99
2023-09-27T21:52:57.846Z,13.97
2023-09-27T21:55:24.074Z,13.95
2023-09-27T21:57:50.331Z,13.90
2023-09-27T22:00:16.534Z,13.86
2023-09-27T22:02:43.085Z,13.84
2023-09-27T22:05:09.361Z,13.80
2023-09-27T22:07:35.595Z,13.84
2023-09-27T22:10:01.830Z,13.88
2023-09-27T22:12:27.991Z,13.78
2023-09-27T22:14:54.214Z,13.66
2023-09-27T22:17:20.475Z,13.58
2023-09-27T22:19:46.719Z,13.55
2023-09-27T22:22:12.969Z,13.60
2023-09-27T22:24:39.220Z,13.68
2023-09-27T22:27:10.076Z,13.73
2023-09-27T22:29:39.640Z,13.74
2023-09-27T22:37:29.857Z,13.93
2023-09-27T22:40:12.695Z,13.97
2023-09-27T22:42:41.807Z,14.02
2023-09-27T22:45:30.625Z,14.00
2023-09-27T22:47:55.061Z,13.98
2023-09-27T22:50:26.252Z,13.97
2023-09-27T22:52:52.511Z,13.99
2023-09-27T22:55:18.707Z,14.00
2023-09-27T22:57:44.935Z,14.08
2023-09-27T23:00:11.175Z,14.13
2023-09-27T23:02:37.426Z,14.18
2023-09-27T23:05:03.760Z,14.22
2023-09-27T23:07:29.982Z,14.26
2023-09-27T23:09:56.167Z,14.30
2023-09-27T23:12:30.914Z,14.25
2023-09-27T23:14:57.128Z,14.33
2023-09-27T23:17:23.370Z,14.37
2023-09-27T23:19:49.624Z,14.36
2023-09-27T23:22:17.171Z,14.37
2023-09-27T23:24:43.370Z,14.34
2023-09-27T23:27:09.632Z,14.31
2023-09-27T23:29:35.822Z,14.26
2023-09-27T23:32:02.072Z,14.25
2023-09-27T23:34:28.380Z,14.23
2023-09-27T23:36:54.599Z,14.24
2023-09-27T23:39:20.774Z,14.25
2023-09-27T23:41:46.977Z,14.25
2023-09-27T23:44:13.196Z,14.26
2023-09-27T23:46:39.568Z,14.27
2023-09-27T23:49:05.967Z,14.28
2023-09-27T23:51:32.212Z,14.27
2023-09-27T23:53:58.459Z,14.27
2023-09-27T23:56:24.684Z,14.26
2023-09-27T23:58:50.863Z,14.25
